首页
METAR-TAF:

METAR-TAF

机场 :

都柏林机场

都柏林, 爱尔兰

纬度: 53-26N, 经度: 006-15W, 海拔: 68米

当前天气观测

该预报发布于38分钟前的14:00 UTC
风速18节,风向西
温度 13°C
湿度 72%
气压 1033 hPa
能见度10公里或以上
散云层高于1700英尺
散云层高于2000英尺
多云层高于15000英尺

METAR: EIDW 231400Z 27018KT 9999 SCT017 SCT020 BKN150 13/08 Q1033 NOSIG

时间: 15:38 (14:38 UTC)

预报

该预报发布于3小时和38分钟前的11:00 UTC
预报有效从23日的 12点(UTC)到 24日的 12点(UTC)
风速17节,风向西
能见度10公里或以上
散云层高于1700英尺
短暂存在
从 23日的 12点(UTC)到 23日的 15点(UTC)
风速18节,风向西,有时为30节阵风
成为
从 23日的 18点(UTC)到 23日的 21点(UTC)
风速12节,风向西
成为
从 23日的 21点(UTC)到 23日的 24点(UTC)
散云层高于700英尺
多云层高于1500英尺
短暂存在
从 23日的 23点(UTC)到 24日的 08点(UTC)
多云层高于700英尺

TAF: EIDW 231100Z 2312/2412 27017KT 9999 SCT017 TEMPO 2312/2315 28018G30KT BECMG 2318/2321 28012KT BECMG 2321/2324 SCT007 BKN015 TEMPO 2323/2408 BKN007

超过4000个机场的气象观测和天气预报(METAR&TAF报告)。

可查询的气象台以黄色和红色小点在地图上表示。

将鼠标移到小点上方,可查看气象台名称。

然后点击查看天气观测和预报。

如需切换地图:点击带黑十字的绿色按钮放大地图;点击带横线的绿色按钮缩小地图;或者点击绿色箭头查看邻近地区的地图。


METAR-TAF: